createdAt,value
2022-08-14T00:02:02.153Z,15.20
2022-08-14T00:04:41.989Z,15.20
2022-08-14T00:07:14.028Z,15.10
2022-08-14T00:09:56.318Z,15.10
2022-08-14T00:13:24.216Z,15.10
2022-08-14T00:15:52.049Z,15.00
2022-08-14T00:18:30.438Z,15.00
2022-08-14T00:21:32.461Z,14.90
2022-08-14T00:24:01.757Z,14.80
2022-08-14T00:26:29.066Z,14.70
2022-08-14T00:28:55.806Z,14.70
2022-08-14T00:31:34.947Z,14.60
2022-08-14T00:34:37.871Z,14.60
2022-08-14T00:37:13.439Z,14.60
2022-08-14T00:39:40.525Z,14.40
2022-08-14T00:42:21.230Z,14.40
2022-08-14T00:44:48.459Z,14.40
2022-08-14T00:47:17.503Z,14.50
2022-08-14T00:49:45.090Z,14.50
2022-08-14T00:52:17.887Z,14.40
2022-08-14T00:54:57.900Z,14.40
2022-08-14T00:57:31.889Z,14.50
2022-08-14T00:59:59.892Z,14.40
2022-08-14T01:02:31.721Z,14.40
2022-08-14T01:05:06.926Z,14.30
2022-08-14T01:07:47.430Z,14.30
2022-08-14T01:10:20.907Z,14.20
2022-08-14T01:12:49.707Z,14.10
2022-08-14T01:15:20.714Z,14.20
2022-08-14T01:18:16.627Z,14.20
2022-08-14T01:21:01.655Z,14.30
2022-08-14T01:23:34.919Z,14.20
2022-08-14T01:26:34.349Z,14.30
2022-08-14T01:29:05.494Z,14.20
2022-08-14T01:31:50.303Z,14.20
2022-08-14T01:35:18.974Z,14.20
2022-08-14T01:38:37.084Z,14.10
2022-08-14T01:41:14.820Z,14.10
2022-08-14T01:44:01.136Z,14.10
2022-08-14T01:46:36.644Z,14.00
2022-08-14T01:49:08.032Z,14.00
2022-08-14T01:51:36.372Z,13.90
2022-08-14T01:54:14.578Z,13.90
2022-08-14T01:56:44.578Z,14.00
2022-08-14T02:01:05.350Z,14.10
2022-08-14T02:03:40.493Z,14.00
2022-08-14T02:06:33.248Z,13.90
2022-08-14T02:09:03.023Z,13.80
2022-08-14T02:11:36.342Z,13.80
2022-08-14T02:14:10.044Z,13.90
2022-08-14T02:16:52.409Z,13.90
2022-08-14T02:19:26.924Z,13.90
2022-08-14T02:21:58.345Z,13.80
2022-08-14T02:24:39.068Z,13.70
2022-08-14T02:28:24.817Z,13.70
2022-08-14T02:31:28.434Z,13.70
2022-08-14T02:34:22.604Z,13.60
2022-08-14T02:37:04.135Z,13.50
2022-08-14T02:39:37.913Z,13.50
2022-08-14T02:42:12.948Z,13.40
2022-08-14T02:44:49.266Z,13.50
2022-08-14T02:47:19.266Z,13.40
2022-08-14T02:49:54.975Z,13.50
2022-08-14T02:52:55.493Z,13.60
2022-08-14T02:55:24.501Z,13.60
2022-08-14T02:57:51.835Z,13.50
2022-08-14T03:00:25.931Z,13.40
2022-08-14T03:02:58.584Z,13.50
2022-08-14T03:05:29.747Z,13.50
2022-08-14T03:08:15.973Z,13.40
2022-08-14T03:10:49.388Z,13.40
2022-08-14T03:13:19.825Z,13.40
2022-08-14T03:15:55.940Z,13.30
2022-08-14T03:18:30.728Z,13.40
2022-08-14T03:21:02.676Z,13.20
2022-08-14T03:23:37.693Z,13.20
2022-08-14T03:26:12.875Z,13.20
2022-08-14T03:28:49.429Z,13.30
2022-08-14T03:31:21.709Z,13.40
2022-08-14T03:33:51.633Z,13.40
2022-08-14T03:37:50.722Z,13.40
2022-08-14T03:40:50.242Z,13.40
2022-08-14T03:43:17.010Z,13.20
2022-08-14T03:45:48.664Z,13.20
2022-08-14T03:48:30.269Z,13.40
2022-08-14T03:50:58.989Z,13.50
2022-08-14T03:53:25.825Z,13.60
2022-08-14T03:55:55.381Z,13.50
2022-08-14T03:58:34.854Z,13.40
2022-08-14T04:01:03.543Z,13.50
2022-08-14T04:03:33.116Z,13.60
2022-08-14T04:06:01.223Z,13.50
2022-08-14T04:08:30.960Z,13.50
2022-08-14T04:11:02.777Z,13.40
2022-08-14T04:13:41.582Z,13.40
2022-08-14T04:16:22.108Z,13.40
2022-08-14T04:18:56.259Z,13.40
2022-08-14T04:21:28.610Z,13.30
2022-08-14T04:23:58.749Z,13.40
2022-08-14T04:26:42.547Z,13.30
2022-08-14T04:29:15.244Z,13.40
2022-08-14T04:33:01.722Z,13.50
2022-08-14T04:35:56.217Z,13.50
2022-08-14T04:38:43.296Z,13.50
2022-08-14T04:41:32.380Z,13.70
2022-08-14T04:43:59.031Z,13.70
2022-08-14T04:46:56.698Z,13.80
2022-08-14T04:49:24.273Z,13.80
2022-08-14T04:51:55.899Z,13.80
2022-08-14T04:54:26.180Z,14.00
2022-08-14T04:56:56.059Z,14.00
2022-08-14T04:59:23.936Z,14.10
2022-08-14T05:01:55.174Z,14.40
2022-08-14T05:04:24.216Z,14.40
2022-08-14T05:06:54.990Z,14.40
2022-08-14T05:09:23.496Z,14.40
2022-08-14T05:11:50.175Z,14.50
2022-08-14T05:14:46.085Z,14.60
2022-08-14T05:17:24.742Z,14.70
2022-08-14T05:21:54.235Z,14.90
2022-08-14T05:24:28.059Z,15.00
2022-08-14T05:26:55.330Z,15.20
2022-08-14T05:29:22.132Z,15.40
2022-08-14T05:31:48.884Z,15.70
2022-08-14T05:34:17.224Z,15.90
2022-08-14T05:36:50.754Z,16.20
2022-08-14T05:39:30.006Z,16.60
2022-08-14T05:41:58.296Z,16.90
2022-08-14T05:44:29.704Z,17.20
2022-08-14T05:46:58.156Z,17.30
2022-08-14T05:49:25.969Z,17.50
2022-08-14T05:52:01.613Z,17.90
2022-08-14T05:54:30.679Z,18.00
2022-08-14T05:57:03.843Z,18.00
2022-08-14T05:59:50.163Z,18.10
2022-08-14T06:02:17.936Z,18.20
2022-08-14T06:04:49.430Z,18.30
2022-08-14T06:07:16.895Z,18.50
2022-08-14T06:09:43.915Z,18.70
2022-08-14T06:12:55.156Z,18.80
2022-08-14T06:15:29.969Z,19.10
2022-08-14T06:17:58.982Z,19.20
2022-08-14T06:20:26.774Z,19.40
2022-08-14T06:22:54.935Z,19.50
2022-08-14T06:25:23.547Z,19.60
2022-08-14T06:27:51.656Z,19.70
2022-08-14T06:30:22.877Z,20.00
2022-08-14T06:32:52.488Z,20.10
2022-08-14T06:35:20.213Z,20.30
2022-08-14T06:37:57.640Z,20.50
2022-08-14T06:40:30.400Z,20.40
2022-08-14T06:43:15.184Z,20.80
2022-08-14T06:45:53.754Z,21.00
2022-08-14T06:48:24.725Z,21.20
2022-08-14T06:50:54.010Z,21.40
2022-08-14T06:53:21.960Z,21.70
2022-08-14T06:56:00.754Z,21.80
2022-08-14T06:58:29.497Z,21.90
2022-08-14T07:01:20.351Z,22.00
2022-08-14T07:04:22.480Z,22.20
2022-08-14T07:06:59.238Z,22.10
2022-08-14T07:09:28.136Z,22.10
2022-08-14T07:11:57.177Z,22.20
2022-08-14T07:14:24.525Z,22.40
2022-08-14T07:16:51.041Z,22.60
2022-08-14T07:19:20.733Z,22.70
2022-08-14T07:21:47.793Z,22.90
2022-08-14T07:24:21.937Z,23.20
2022-08-14T07:26:53.373Z,23.20
2022-08-14T07:29:26.129Z,23.30
2022-08-14T07:31:53.565Z,23.40
2022-08-14T07:34:36.034Z,23.50
2022-08-14T07:37:05.047Z,23.60
2022-08-14T07:39:34.496Z,23.80
2022-08-14T07:42:01.994Z,24.10
2022-08-14T07:44:35.774Z,24.30
2022-08-14T07:47:12.960Z,24.30
2022-08-14T07:49:41.337Z,24.60
2022-08-14T07:52:10.226Z,24.80
2022-08-14T07:54:36.742Z,24.90
2022-08-14T07:57:12.143Z,24.90
2022-08-14T07:59:43.544Z,25.10
2022-08-14T08:02:18.694Z,25.40
2022-08-14T08:04:54.661Z,25.60
2022-08-14T08:07:29.787Z,25.80
2022-08-14T08:10:01.127Z,25.90
2022-08-14T08:12:30.998Z,26.10
2022-08-14T08:15:02.663Z,26.10
2022-08-14T08:17:38.990Z,26.20
2022-08-14T08:20:20.019Z,26.20
2022-08-14T08:22:55.862Z,26.30
2022-08-14T08:25:39.794Z,26.40
2022-08-14T08:28:26.532Z,26.30
2022-08-14T08:31:01.751Z,26.40
2022-08-14T08:33:32.018Z,26.40
2022-08-14T08:36:04.749Z,26.70
2022-08-14T08:39:16.796Z,26.70
2022-08-14T08:41:53.580Z,26.70
2022-08-14T08:44:31.959Z,26.80
2022-08-14T08:47:05.062Z,26.90
2022-08-14T08:49:43.300Z,26.80
2022-08-14T08:52:25.567Z,26.70
2022-08-14T08:54:57.591Z,26.80
2022-08-14T08:57:25.582Z,26.90
2022-08-14T08:59:55.328Z,26.70
2022-08-14T09:02:26.152Z,26.70
2022-08-14T09:05:03.037Z,26.90
2022-08-14T09:07:31.199Z,27.00
2022-08-14T09:09:59.997Z,26.90
2022-08-14T09:12:33.550Z,26.70
2022-08-14T09:15:12.650Z,26.80
2022-08-14T09:17:43.433Z,26.90
2022-08-14T09:20:12.513Z,26.90
2022-08-14T09:22:42.591Z,26.90
2022-08-14T09:25:17.050Z,27.10
2022-08-14T09:27:46.169Z,27.10
2022-08-14T09:30:32.748Z,27.20
2022-08-14T09:35:56.629Z,27.40
2022-08-14T09:42:17.332Z,27.60
2022-08-14T09:45:30.390Z,27.30
2022-08-14T09:48:27.713Z,27.50
2022-08-14T09:54:18.850Z,27.40
2022-08-14T09:56:51.714Z,27.50
2022-08-14T09:59:28.287Z,27.50
2022-08-14T10:01:58.801Z,27.50
2022-08-14T10:04:34.331Z,27.60
2022-08-14T10:07:06.071Z,27.60
2022-08-14T10:10:00.247Z,27.50
2022-08-14T10:12:52.946Z,27.60
2022-08-14T10:15:24.387Z,27.60
2022-08-14T10:20:47.049Z,27.70
2022-08-14T10:23:23.368Z,27.70
2022-08-14T10:26:22.994Z,27.80
2022-08-14T10:29:18.746Z,27.70
2022-08-14T10:31:58.736Z,27.90
2022-08-14T10:34:35.659Z,28.00
2022-08-14T10:37:16.451Z,28.10
2022-08-14T10:40:10.418Z,28.10
2022-08-14T10:43:16.717Z,28.20
2022-08-14T10:45:59.836Z,27.90
2022-08-14T10:49:02.416Z,28.00
2022-08-14T10:51:34.260Z,28.00
2022-08-14T10:54:36.236Z,28.00
2022-08-14T10:58:11.748Z,28.10
2022-08-14T11:00:55.574Z,28.20
2022-08-14T11:03:26.669Z,28.20
2022-08-14T11:06:17.946Z,28.20
2022-08-14T11:08:45.746Z,28.30
2022-08-14T11:11:12.608Z,28.40
2022-08-14T11:13:45.801Z,28.20
2022-08-14T11:16:15.223Z,28.20
2022-08-14T11:18:51.245Z,28.40
2022-08-14T11:21:22.461Z,28.50
2022-08-14T11:23:49.717Z,28.50
2022-08-14T11:26:23.820Z,28.60
2022-08-14T11:28:52.913Z,28.50
2022-08-14T11:31:23.388Z,28.50
2022-08-14T11:33:54.558Z,28.60
2022-08-14T11:36:57.254Z,28.30
2022-08-14T11:39:47.931Z,28.10
2022-08-14T11:42:56.857Z,27.90
2022-08-14T11:45:32.449Z,28.00
2022-08-14T11:49:55.687Z,28.20
2022-08-14T11:52:33.570Z,28.00
2022-08-14T11:55:00.705Z,27.90
2022-08-14T11:57:27.322Z,27.80
2022-08-14T12:00:14.676Z,27.70
2022-08-14T12:03:04.201Z,27.70
2022-08-14T12:05:39.655Z,27.90
2022-08-14T12:08:06.877Z,28.20
2022-08-14T12:10:43.533Z,28.70
2022-08-14T12:13:20.190Z,28.90
2022-08-14T12:16:06.574Z,28.90
2022-08-14T12:18:47.649Z,28.90
2022-08-14T12:21:23.663Z,29.00
2022-08-14T12:24:08.393Z,29.00
2022-08-14T12:26:40.530Z,29.00
2022-08-14T12:29:15.482Z,29.10
2022-08-14T12:31:46.923Z,28.90
2022-08-14T12:34:20.117Z,28.90
2022-08-14T12:36:49.479Z,29.00
2022-08-14T12:39:22.912Z,29.00
2022-08-14T12:41:57.363Z,29.00
2022-08-14T12:44:39.315Z,29.00
2022-08-14T12:47:16.861Z,28.80
2022-08-14T12:49:57.746Z,28.80
2022-08-14T12:52:43.132Z,28.80
2022-08-14T12:55:21.015Z,28.70
2022-08-14T12:57:53.162Z,28.50
2022-08-14T13:00:24.032Z,28.60
2022-08-14T13:02:56.012Z,28.60
2022-08-14T13:05:30.798Z,28.80
2022-08-14T13:08:01.219Z,29.00
2022-08-14T13:10:51.305Z,29.10
2022-08-14T13:13:20.277Z,29.20
2022-08-14T13:15:57.377Z,29.00
2022-08-14T13:18:28.975Z,29.10
2022-08-14T13:21:01.743Z,29.00
2022-08-14T13:23:36.427Z,29.00
2022-08-14T13:26:06.299Z,29.10
2022-08-14T13:29:00.610Z,29.00
2022-08-14T13:31:34.178Z,29.00
2022-08-14T13:34:02.731Z,29.10
2022-08-14T13:36:54.400Z,29.20
2022-08-14T13:39:28.950Z,29.10
2022-08-14T13:41:59.483Z,29.20
2022-08-14T13:44:27.974Z,29.20
2022-08-14T13:46:54.814Z,29.20
2022-08-14T13:49:24.010Z,29.20
2022-08-14T13:51:58.059Z,29.20
2022-08-14T13:54:30.517Z,29.10
2022-08-14T13:57:02.960Z,28.90
2022-08-14T13:59:37.801Z,28.60
2022-08-14T14:02:07.885Z,28.40
2022-08-14T14:04:41.326Z,28.20
2022-08-14T14:07:12.215Z,28.10
2022-08-14T14:09:52.721Z,28.00
2022-08-14T14:12:38.384Z,28.00
2022-08-14T14:15:22.854Z,28.00
2022-08-14T14:17:57.734Z,28.20
2022-08-14T14:20:35.179Z,28.20
2022-08-14T14:23:11.807Z,28.10
2022-08-14T14:25:49.182Z,28.00
2022-08-14T14:28:24.474Z,28.00
2022-08-14T14:30:57.378Z,28.00
2022-08-14T14:33:45.317Z,28.00
2022-08-14T14:36:21.248Z,27.90
2022-08-14T14:38:58.325Z,27.90
2022-08-14T14:41:38.166Z,27.70
2022-08-14T14:44:09.214Z,27.80
2022-08-14T14:46:38.303Z,27.90
2022-08-14T14:49:14.412Z,27.80
2022-08-14T14:51:44.624Z,27.80
2022-08-14T14:54:17.117Z,27.70
2022-08-14T14:56:48.337Z,27.70
2022-08-14T14:59:19.169Z,27.80
2022-08-14T15:01:50.028Z,27.90
2022-08-14T15:04:20.810Z,27.90
2022-08-14T15:06:48.624Z,28.00
2022-08-14T15:09:17.836Z,28.00
2022-08-14T15:11:45.831Z,28.00
2022-08-14T15:14:56.069Z,28.10
2022-08-14T15:17:25.005Z,28.00
2022-08-14T15:19:56.711Z,28.00
2022-08-14T15:22:25.194Z,28.00
2022-08-14T15:24:51.998Z,27.90
2022-08-14T15:27:21.473Z,28.00
2022-08-14T15:29:53.665Z,28.00
2022-08-14T15:32:23.220Z,27.90
2022-08-14T15:34:51.721Z,27.90
2022-08-14T15:37:21.461Z,27.90
2022-08-14T15:39:50.374Z,28.00
2022-08-14T15:42:22.289Z,28.00
2022-08-14T15:44:57.556Z,27.80
2022-08-14T15:47:29.529Z,27.90
2022-08-14T15:50:03.531Z,27.90
2022-08-14T15:52:44.837Z,27.90
2022-08-14T15:55:15.382Z,27.80
2022-08-14T15:58:02.429Z,27.70
2022-08-14T16:00:54.556Z,27.70
2022-08-14T16:03:27.449Z,27.60
2022-08-14T16:06:15.662Z,27.60
2022-08-14T16:08:58.511Z,27.50
2022-08-14T16:11:32.616Z,27.40
2022-08-14T16:14:00.179Z,27.30
2022-08-14T16:16:34.524Z,27.30
2022-08-14T16:19:20.456Z,27.20
2022-08-14T16:22:02.274Z,27.10
2022-08-14T16:25:35.437Z,27.10
2022-08-14T16:28:03.573Z,27.10
2022-08-14T16:30:33.990Z,27.10
2022-08-14T16:33:06.456Z,27.00
2022-08-14T16:35:43.207Z,27.00
2022-08-14T16:40:25.543Z,26.90
2022-08-14T16:43:04.217Z,26.90
2022-08-14T16:45:43.824Z,26.80
2022-08-14T16:48:54.692Z,26.70
2022-08-14T16:51:22.470Z,26.60
2022-08-14T16:53:50.412Z,26.50
2022-08-14T16:56:25.397Z,26.50
2022-08-14T16:59:19.317Z,26.40
2022-08-14T17:01:57.794Z,26.20
2022-08-14T17:04:30.851Z,26.00
2022-08-14T17:07:11.056Z,26.00
2022-08-14T17:09:52.451Z,25.90
2022-08-14T17:12:35.065Z,25.70
2022-08-14T17:15:14.974Z,25.50
2022-08-14T17:17:54.468Z,25.40
2022-08-14T17:20:54.800Z,25.30
2022-08-14T17:23:30.001Z,25.20
2022-08-14T17:25:57.334Z,25.10
2022-08-14T17:28:50.486Z,24.90
2022-08-14T17:31:19.756Z,24.80
2022-08-14T17:33:51.776Z,24.70
2022-08-14T17:36:22.763Z,24.60
2022-08-14T17:39:14.421Z,24.40
2022-08-14T17:42:03.193Z,24.20
2022-08-14T17:44:44.998Z,24.10
2022-08-14T17:47:18.157Z,23.90
2022-08-14T17:49:51.689Z,23.80
2022-08-14T17:52:34.838Z,23.70
2022-08-14T17:55:09.121Z,23.70
2022-08-14T17:57:41.191Z,23.60
2022-08-14T18:00:16.844Z,23.40
2022-08-14T18:02:50.414Z,23.30
2022-08-14T18:05:23.815Z,23.20
2022-08-14T18:08:40.544Z,23.10
2022-08-14T18:11:12.808Z,23.00
2022-08-14T18:13:51.753Z,23.20
2022-08-14T18:16:22.445Z,23.10
2022-08-14T18:18:51.144Z,23.10
2022-08-14T18:21:23.915Z,23.00
2022-08-14T18:24:20.360Z,23.00
2022-08-14T18:27:14.953Z,22.90
2022-08-14T18:29:58.104Z,22.70
2022-08-14T18:32:47.307Z,22.60
2022-08-14T18:35:45.587Z,22.30
2022-08-14T18:38:55.421Z,22.10
2022-08-14T18:41:37.721Z,22.10
2022-08-14T18:44:10.744Z,22.20
2022-08-14T18:49:12.336Z,22.30
2022-08-14T18:51:45.692Z,22.20
2022-08-14T18:54:32.765Z,22.10
2022-08-14T18:57:02.594Z,21.90
2022-08-14T18:59:44.552Z,21.70
2022-08-14T19:04:37.323Z,21.50
2022-08-14T19:07:17.835Z,21.20
2022-08-14T19:10:57.675Z,21.20
2022-08-14T19:13:48.454Z,21.00
2022-08-14T19:16:22.894Z,20.90
2022-08-14T19:19:04.052Z,20.90
2022-08-14T19:21:52.993Z,20.80
2022-08-14T19:24:43.886Z,20.70
2022-08-14T19:27:23.832Z,21.00
2022-08-14T19:30:29.217Z,21.20
2022-08-14T19:33:02.546Z,21.30
2022-08-14T19:35:59.978Z,21.40
2022-08-14T19:39:01.928Z,21.40
2022-08-14T19:41:34.404Z,21.40
2022-08-14T19:44:19.812Z,21.40
2022-08-14T19:47:00.386Z,21.40
2022-08-14T19:50:24.592Z,21.30
2022-08-14T19:53:16.530Z,21.30
2022-08-14T19:56:01.364Z,21.20
2022-08-14T19:58:55.031Z,21.30
2022-08-14T20:01:36.391Z,21.30
2022-08-14T20:04:47.011Z,21.30
2022-08-14T20:08:00.393Z,21.30
2022-08-14T20:12:02.595Z,21.10
2022-08-14T20:14:36.300Z,21.10
2022-08-14T20:17:06.771Z,21.10
2022-08-14T20:19:37.758Z,21.10
2022-08-14T20:22:36.342Z,21.10
2022-08-14T20:25:21.200Z,21.10
2022-08-14T20:27:59.243Z,21.10
2022-08-14T20:30:35.220Z,21.10
2022-08-14T20:33:07.706Z,21.10
2022-08-14T20:35:50.718Z,21.00
2022-08-14T20:38:31.886Z,20.90
2022-08-14T20:41:06.521Z,20.90
2022-08-14T20:43:56.071Z,20.80
2022-08-14T20:46:38.301Z,20.70
2022-08-14T20:49:10.063Z,20.70
2022-08-14T20:51:43.588Z,20.60
2022-08-14T20:54:34.083Z,20.50
2022-08-14T20:57:09.756Z,20.40
2022-08-14T20:59:50.627Z,20.30
2022-08-14T21:02:50.052Z,20.50
2022-08-14T21:05:33.720Z,20.30
2022-08-14T21:08:09.980Z,20.20
2022-08-14T21:10:54.923Z,20.00
2022-08-14T21:14:09.153Z,19.90
2022-08-14T21:16:58.637Z,19.80
2022-08-14T21:19:28.592Z,19.60
2022-08-14T21:21:59.333Z,19.60
2022-08-14T21:24:39.726Z,19.40
2022-08-14T21:27:20.116Z,19.30
2022-08-14T21:29:53.816Z,19.30
2022-08-14T21:32:36.227Z,19.30
2022-08-14T21:35:14.012Z,19.60
2022-08-14T21:37:44.729Z,19.90
2022-08-14T21:40:40.352Z,19.80
2022-08-14T21:43:17.989Z,19.60
2022-08-14T21:45:51.637Z,19.30
2022-08-14T21:48:22.090Z,19.10
2022-08-14T21:51:01.627Z,18.90
2022-08-14T21:54:32.371Z,18.70
2022-08-14T21:57:20.494Z,18.60
2022-08-14T22:00:35.193Z,18.70
2022-08-14T22:03:12.149Z,18.70
2022-08-14T22:05:40.949Z,18.70
2022-08-14T22:08:12.192Z,18.70
2022-08-14T22:10:44.805Z,18.70
2022-08-14T22:13:16.702Z,18.60
2022-08-14T22:15:49.737Z,18.60
2022-08-14T22:18:20.170Z,18.50
2022-08-14T22:20:53.429Z,18.50
2022-08-14T22:23:23.181Z,18.40
2022-08-14T22:25:50.932Z,18.30
2022-08-14T22:28:26.877Z,18.30
2022-08-14T22:31:03.798Z,18.60
2022-08-14T22:33:39.484Z,18.70
2022-08-14T22:36:46.695Z,18.80
2022-08-14T22:40:45.950Z,18.90
2022-08-14T22:43:24.917Z,18.80
2022-08-14T22:45:55.410Z,18.60
2022-08-14T22:48:23.327Z,18.60
2022-08-14T22:50:53.677Z,18.60
2022-08-14T22:53:21.825Z,18.60
2022-08-14T22:55:52.024Z,18.60
2022-08-14T22:58:30.185Z,18.50
2022-08-14T23:00:59.460Z,18.50
2022-08-14T23:03:26.222Z,18.40
2022-08-14T23:05:54.632Z,18.30
2022-08-14T23:09:00.464Z,18.10
2022-08-14T23:12:02.790Z,17.90
2022-08-14T23:14:30.658Z,17.80
2022-08-14T23:16:57.850Z,17.80
2022-08-14T23:19:25.767Z,17.70
2022-08-14T23:22:04.338Z,17.70
2022-08-14T23:24:31.054Z,17.70
2022-08-14T23:26:57.612Z,17.80
2022-08-14T23:29:24.308Z,17.80
2022-08-14T23:31:52.600Z,17.80
2022-08-14T23:34:22.575Z,17.60
2022-08-14T23:36:55.979Z,17.50
2022-08-14T23:39:30.871Z,17.50
2022-08-14T23:42:08.825Z,17.50
2022-08-14T23:44:38.007Z,17.50
2022-08-14T23:47:12.021Z,17.50
2022-08-14T23:50:01.044Z,17.40
2022-08-14T23:52:51.576Z,17.40
2022-08-14T23:55:34.299Z,17.40
2022-08-14T23:58:01.029Z,17.40
